createdAt,value
2022-07-31T00:04:17.138Z,16.00
2022-07-31T00:09:53.991Z,16.00
2022-07-31T00:14:44.015Z,15.80
2022-07-31T00:19:48.783Z,15.80
2022-07-31T00:24:52.183Z,15.70
2022-07-31T00:29:55.559Z,15.60
2022-07-31T00:35:00.211Z,15.60
2022-07-31T00:40:04.186Z,15.50
2022-07-31T00:45:08.737Z,15.30
2022-07-31T00:50:14.361Z,15.30
2022-07-31T00:55:18.192Z,15.20
2022-07-31T01:00:23.436Z,15.10
2022-07-31T01:05:28.336Z,15.00
2022-07-31T01:10:43.013Z,14.90
2022-07-31T01:15:47.707Z,14.90
2022-07-31T01:20:56.427Z,14.80
2022-07-31T01:26:12.412Z,14.70
2022-07-31T01:31:27.455Z,14.70
2022-07-31T01:36:35.045Z,14.60
2022-07-31T01:41:43.111Z,14.50
2022-07-31T01:46:48.908Z,14.50
2022-07-31T01:51:53.139Z,14.50
2022-07-31T01:56:59.806Z,14.40
2022-07-31T02:02:05.649Z,14.20
2022-07-31T02:07:13.349Z,14.10
2022-07-31T02:12:17.065Z,14.10
2022-07-31T02:17:38.232Z,14.10
2022-07-31T02:22:41.838Z,14.00
2022-07-31T02:27:54.363Z,13.90
2022-07-31T02:33:04.812Z,13.90
2022-07-31T02:38:17.105Z,13.90
2022-07-31T02:43:27.841Z,13.90
2022-07-31T02:48:33.305Z,13.80
2022-07-31T02:53:37.971Z,13.80
2022-07-31T02:58:42.352Z,13.80
2022-07-31T03:03:47.091Z,13.80
2022-07-31T03:08:50.434Z,13.70
2022-07-31T03:13:55.673Z,13.70
2022-07-31T03:19:01.471Z,13.50
2022-07-31T03:24:05.618Z,13.40
2022-07-31T03:29:41.666Z,13.40
2022-07-31T03:34:36.246Z,13.40
2022-07-31T03:39:39.742Z,13.40
2022-07-31T03:44:44.754Z,13.40
2022-07-31T03:49:50.457Z,13.40
2022-07-31T03:54:53.977Z,13.40
2022-07-31T03:59:58.645Z,13.30
2022-07-31T04:05:09.795Z,13.30
2022-07-31T04:10:13.523Z,13.30
2022-07-31T04:15:16.809Z,13.30
2022-07-31T04:20:21.958Z,13.40
2022-07-31T04:25:25.190Z,13.50
2022-07-31T04:30:28.720Z,13.50
2022-07-31T04:35:33.601Z,13.70
2022-07-31T04:40:36.890Z,13.90
2022-07-31T04:45:40.262Z,14.10
2022-07-31T04:50:44.879Z,14.30
2022-07-31T04:56:08.568Z,14.60
2022-07-31T05:01:12.027Z,14.80
2022-07-31T05:06:21.120Z,15.20
2022-07-31T05:11:24.812Z,15.60
2022-07-31T05:16:29.220Z,16.00
2022-07-31T05:21:33.986Z,16.40
2022-07-31T05:26:52.874Z,16.70
2022-07-31T05:31:59.366Z,17.20
2022-07-31T05:37:04.828Z,17.80
2022-07-31T05:42:08.572Z,18.50
2022-07-31T05:47:11.810Z,19.10
2022-07-31T05:52:18.528Z,19.60
2022-07-31T05:57:33.598Z,19.90
2022-07-31T06:02:37.531Z,20.40
2022-07-31T06:07:47.235Z,20.50
2022-07-31T06:12:56.024Z,20.60
2022-07-31T06:17:59.836Z,20.50
2022-07-31T06:23:14.518Z,20.30
2022-07-31T06:28:38.856Z,20.10
2022-07-31T06:33:51.217Z,20.10
2022-07-31T06:38:57.467Z,20.90
2022-07-31T06:44:00.917Z,21.50
2022-07-31T06:49:08.580Z,21.20
2022-07-31T06:54:13.705Z,21.10
2022-07-31T06:59:40.337Z,21.60
2022-07-31T07:05:00.027Z,21.90
2022-07-31T07:10:06.271Z,22.30
2022-07-31T07:15:10.751Z,22.70
2022-07-31T07:20:14.655Z,22.90
2022-07-31T07:30:47.343Z,29.00
2022-07-31T07:35:50.664Z,29.80
2022-07-31T07:40:55.379Z,28.50
2022-07-31T07:45:58.601Z,29.70
2022-07-31T07:51:01.956Z,33.90
2022-07-31T07:56:07.285Z,35.40
2022-07-31T08:01:10.663Z,36.50
2022-07-31T08:06:14.009Z,38.60
2022-07-31T08:11:18.955Z,36.00
2022-07-31T08:16:22.737Z,34.20
2022-07-31T08:21:26.342Z,33.60
2022-07-31T08:26:51.651Z,35.40
2022-07-31T08:31:54.994Z,35.30
2022-07-31T08:36:58.411Z,33.30
2022-07-31T08:42:06.032Z,32.90
2022-07-31T08:47:10.004Z,33.90
2022-07-31T08:52:20.834Z,35.60
2022-07-31T08:57:27.024Z,37.40
2022-07-31T09:02:30.398Z,36.30
2022-07-31T09:07:33.571Z,35.60
2022-07-31T09:12:38.167Z,36.50
2022-07-31T09:17:41.661Z,36.40
2022-07-31T09:23:06.967Z,36.00
2022-07-31T09:28:11.671Z,35.60
2022-07-31T09:33:16.730Z,35.50
2022-07-31T09:38:21.221Z,35.40
2022-07-31T09:43:31.409Z,35.80
2022-07-31T09:48:35.767Z,35.90
2022-07-31T09:53:45.478Z,36.00
2022-07-31T09:58:50.141Z,34.60
2022-07-31T10:03:54.859Z,34.00
2022-07-31T10:08:59.181Z,35.60
2022-07-31T10:14:06.070Z,34.80
2022-07-31T10:19:14.301Z,33.60
2022-07-31T10:24:27.743Z,33.90
2022-07-31T10:29:33.427Z,33.60
2022-07-31T10:34:37.161Z,33.90
2022-07-31T10:39:50.628Z,33.50
2022-07-31T10:45:04.082Z,32.90
2022-07-31T10:50:09.376Z,33.20
2022-07-31T10:55:22.345Z,33.00
2022-07-31T11:00:29.919Z,33.30
2022-07-31T11:05:33.641Z,33.70
2022-07-31T11:11:03.407Z,33.80
2022-07-31T11:16:08.765Z,33.80
2022-07-31T11:21:37.461Z,32.70
2022-07-31T11:26:41.458Z,31.60
2022-07-31T11:31:46.924Z,30.80
2022-07-31T11:36:51.775Z,31.10
2022-07-31T11:41:55.180Z,31.10
2022-07-31T11:47:03.444Z,30.80
2022-07-31T11:52:30.859Z,31.40
2022-07-31T11:57:51.707Z,32.30
2022-07-31T12:03:04.236Z,32.30
2022-07-31T12:08:08.262Z,32.40
2022-07-31T12:13:16.348Z,33.00
2022-07-31T12:18:21.482Z,32.70
2022-07-31T12:23:41.182Z,33.20
2022-07-31T12:29:04.876Z,32.40
2022-07-31T12:34:29.979Z,31.70
2022-07-31T12:39:54.381Z,32.20
2022-07-31T12:45:19.118Z,32.00
2022-07-31T12:50:26.533Z,31.00
2022-07-31T12:55:33.214Z,31.40
2022-07-31T13:00:40.123Z,31.80
2022-07-31T13:05:48.118Z,31.00
2022-07-31T13:10:55.722Z,30.80
2022-07-31T13:15:59.314Z,31.00
2022-07-31T13:21:08.226Z,31.90
2022-07-31T13:26:12.999Z,31.60
2022-07-31T13:31:16.526Z,30.90
2022-07-31T13:36:21.726Z,31.60
2022-07-31T13:41:26.296Z,32.20
2022-07-31T13:46:31.430Z,32.00
2022-07-31T13:51:49.830Z,32.20
2022-07-31T13:56:54.503Z,32.20
2022-07-31T14:02:03.035Z,32.10
2022-07-31T14:07:13.402Z,31.90
2022-07-31T14:12:16.923Z,31.80
2022-07-31T14:17:25.306Z,31.60
2022-07-31T14:22:31.105Z,31.60
2022-07-31T14:27:35.315Z,32.00
2022-07-31T14:32:39.719Z,31.50
2022-07-31T14:37:44.753Z,31.40
2022-07-31T14:42:48.884Z,30.70
2022-07-31T14:47:52.746Z,30.60
2022-07-31T14:52:58.824Z,30.80
2022-07-31T14:58:02.451Z,30.70
2022-07-31T15:03:07.784Z,30.30
2022-07-31T15:08:14.987Z,30.20
2022-07-31T15:13:20.009Z,30.90
2022-07-31T15:18:25.885Z,31.30
2022-07-31T15:23:35.882Z,30.80
2022-07-31T15:28:39.615Z,30.00
2022-07-31T15:33:43.010Z,29.70
2022-07-31T15:38:47.782Z,29.70
2022-07-31T15:43:51.165Z,30.00
2022-07-31T15:48:54.554Z,30.20
2022-07-31T15:53:59.365Z,30.30
2022-07-31T15:59:04.109Z,29.90
2022-07-31T16:04:16.405Z,30.10
2022-07-31T16:09:23.999Z,30.30
2022-07-31T16:14:27.516Z,29.90
2022-07-31T16:19:31.142Z,29.60
2022-07-31T16:24:39.545Z,29.30
2022-07-31T16:29:59.274Z,29.20
2022-07-31T16:35:07.205Z,29.10
2022-07-31T16:40:30.758Z,29.20
2022-07-31T16:45:36.206Z,29.60
2022-07-31T16:50:39.844Z,29.60
2022-07-31T16:55:55.401Z,29.60
2022-07-31T17:01:04.281Z,29.60
2022-07-31T17:06:07.755Z,29.40
2022-07-31T17:11:12.550Z,29.10
2022-07-31T17:16:15.905Z,28.70
2022-07-31T17:21:19.497Z,28.20
2022-07-31T17:26:32.493Z,28.00
2022-07-31T17:31:36.315Z,28.00
2022-07-31T17:36:39.819Z,27.90
2022-07-31T17:41:45.630Z,27.80
2022-07-31T17:46:48.992Z,27.60
2022-07-31T17:51:58.692Z,27.50
2022-07-31T17:57:05.806Z,27.30
2022-07-31T18:02:10.193Z,27.30
2022-07-31T18:07:17.931Z,27.30
2022-07-31T18:12:24.459Z,27.20
2022-07-31T18:17:30.929Z,27.00
2022-07-31T18:22:34.901Z,26.80
2022-07-31T18:27:57.176Z,26.60
2022-07-31T18:33:00.616Z,26.40
2022-07-31T18:38:04.099Z,26.00
2022-07-31T18:43:09.700Z,25.60
2022-07-31T18:48:14.430Z,25.20
2022-07-31T18:53:17.983Z,25.00
2022-07-31T18:58:24.716Z,24.80
2022-07-31T19:03:30.003Z,24.60
2022-07-31T19:08:33.531Z,24.50
2022-07-31T19:13:38.236Z,24.40
2022-07-31T19:18:41.771Z,24.20
2022-07-31T19:23:47.463Z,24.00
2022-07-31T19:28:52.400Z,23.80
2022-07-31T19:33:56.803Z,23.60
2022-07-31T19:39:00.097Z,23.40
2022-07-31T19:44:07.036Z,23.20
2022-07-31T19:49:11.026Z,22.90
2022-07-31T19:54:14.581Z,22.50
2022-07-31T19:59:21.026Z,22.20
2022-07-31T20:04:25.602Z,22.00
2022-07-31T20:09:30.740Z,21.80
2022-07-31T20:14:35.472Z,21.50
2022-07-31T20:20:14.376Z,21.30
2022-07-31T20:25:02.258Z,21.10
2022-07-31T20:30:28.850Z,21.00
2022-07-31T20:35:47.919Z,21.00
2022-07-31T20:40:55.754Z,21.00
2022-07-31T20:46:01.331Z,21.00
2022-07-31T20:51:07.002Z,21.00
2022-07-31T20:56:10.445Z,20.90
2022-07-31T21:01:16.037Z,20.90
2022-07-31T21:06:21.334Z,20.90
2022-07-31T21:11:31.395Z,20.80
2022-07-31T21:16:36.703Z,20.70
2022-07-31T21:21:40.073Z,20.50
2022-07-31T21:26:45.736Z,20.40
2022-07-31T21:31:51.889Z,20.20
2022-07-31T21:36:55.636Z,20.10
2022-07-31T21:41:59.516Z,19.90
2022-07-31T21:47:05.903Z,19.70
2022-07-31T21:52:12.236Z,19.50
2022-07-31T21:57:15.539Z,19.40
2022-07-31T22:02:20.251Z,19.30
2022-07-31T22:07:35.493Z,19.20
2022-07-31T22:12:38.745Z,19.00
2022-07-31T22:17:43.538Z,18.80
2022-07-31T22:22:47.429Z,18.70
2022-07-31T22:27:55.556Z,18.70
2022-07-31T22:33:01.665Z,18.70
2022-07-31T22:38:05.169Z,18.80
2022-07-31T22:44:12.196Z,18.80
2022-07-31T22:48:34.021Z,18.80
2022-07-31T22:53:38.031Z,18.70
2022-07-31T22:58:41.421Z,18.60
2022-07-31T23:03:46.547Z,18.40
2022-07-31T23:08:53.764Z,18.60
2022-07-31T23:13:58.829Z,18.90
2022-07-31T23:19:04.480Z,18.90
2022-07-31T23:24:08.641Z,18.80
2022-07-31T23:29:12.215Z,18.60
2022-07-31T23:34:17.247Z,18.50
2022-07-31T23:39:23.211Z,18.50
2022-07-31T23:44:26.949Z,18.30
2022-07-31T23:49:32.109Z,18.30
2022-07-31T23:54:35.335Z,18.20
2022-07-31T23:59:38.567Z,18.20
